createdAt,value
2016-07-10T00:00:25.936Z,0
2016-07-10T00:01:25.945Z,0
2016-07-10T00:02:25.934Z,0
2016-07-10T00:03:25.928Z,0
2016-07-10T00:04:25.936Z,0
2016-07-10T00:05:25.937Z,0
2016-07-10T00:06:25.937Z,0
2016-07-10T00:07:25.936Z,0
2016-07-10T00:08:25.934Z,0
2016-07-10T00:09:26.538Z,0
2016-07-10T00:10:25.932Z,0
2016-07-10T00:11:25.926Z,0
2016-07-10T00:12:25.934Z,0
2016-07-10T00:13:25.940Z,0
2016-07-10T00:14:25.933Z,0
2016-07-10T00:15:26.636Z,0
2016-07-10T00:16:26.933Z,0
2016-07-10T00:17:26.735Z,0
2016-07-10T00:18:26.831Z,0
2016-07-10T00:19:26.271Z,0
2016-07-10T00:20:26.634Z,0
2016-07-10T00:21:25.978Z,0
2016-07-10T00:22:25.919Z,0
2016-07-10T00:23:25.928Z,0
2016-07-10T00:24:26.785Z,0
2016-07-10T00:25:26.925Z,0
2016-07-10T00:26:26.989Z,0
2016-07-10T00:27:41.140Z,0
2016-07-10T00:28:26.588Z,0
2016-07-10T00:29:27.081Z,0
2016-07-10T00:30:25.922Z,0
2016-07-10T00:31:26.539Z,0
2016-07-10T00:32:25.922Z,0
2016-07-10T00:33:25.922Z,0
2016-07-10T00:34:25.923Z,0
2016-07-10T00:35:25.922Z,0
2016-07-10T00:36:25.924Z,0
2016-07-10T00:37:25.934Z,0
2016-07-10T00:38:25.922Z,0
2016-07-10T00:39:25.919Z,0
2016-07-10T00:40:25.930Z,0
2016-07-10T00:41:25.926Z,0
2016-07-10T00:42:25.923Z,0
2016-07-10T00:43:25.921Z,0
2016-07-10T00:44:25.914Z,0
2016-07-10T00:45:25.922Z,0
2016-07-10T00:46:25.920Z,0
2016-07-10T00:47:25.921Z,0
2016-07-10T00:48:25.920Z,0
2016-07-10T00:49:25.923Z,0
2016-07-10T00:50:25.929Z,0
2016-07-10T00:51:25.910Z,0
2016-07-10T00:52:25.902Z,0
2016-07-10T00:53:25.921Z,0
2016-07-10T00:54:25.919Z,0
2016-07-10T00:55:25.920Z,0
2016-07-10T00:56:25.909Z,0
2016-07-10T00:57:25.912Z,0
2016-07-10T00:58:25.903Z,0
2016-07-10T00:59:25.912Z,0
2016-07-10T01:00:25.917Z,0
2016-07-10T01:01:27.422Z,0
2016-07-10T01:02:27.567Z,0
2016-07-10T01:03:29.817Z,0
2016-07-10T01:04:26.539Z,0
2016-07-10T01:05:26.466Z,0
2016-07-10T01:06:27.300Z,0
2016-07-10T01:07:25.910Z,0
2016-07-10T01:08:25.905Z,0
2016-07-10T01:09:25.903Z,0
2016-07-10T01:10:27.416Z,0
2016-07-10T01:12:27.197Z,0
2016-07-10T01:13:27.771Z,0
2016-07-10T01:14:27.048Z,0
2016-07-10T01:15:26.341Z,0
2016-07-10T01:16:25.910Z,0
2016-07-10T01:17:25.901Z,0
2016-07-10T01:18:25.910Z,0
2016-07-10T01:19:25.899Z,0
2016-07-10T01:20:25.900Z,0
2016-07-10T01:21:25.894Z,0
2016-07-10T01:22:25.904Z,0
2016-07-10T01:23:25.903Z,0
2016-07-10T01:24:25.899Z,0
2016-07-10T01:25:25.897Z,0
2016-07-10T01:26:25.901Z,0
2016-07-10T01:27:25.894Z,0
2016-07-10T01:28:25.901Z,0
2016-07-10T01:29:25.904Z,0
2016-07-10T01:30:25.994Z,0
2016-07-10T01:31:25.902Z,0
2016-07-10T01:32:25.908Z,0
2016-07-10T01:33:27.847Z,0
2016-07-10T01:35:25.942Z,0
2016-07-10T01:36:26.087Z,0
2016-07-10T01:38:25.898Z,0
2016-07-10T01:39:25.893Z,0
2016-07-10T01:40:25.904Z,0
2016-07-10T01:41:25.891Z,0
2016-07-10T01:43:26.495Z,0
2016-07-10T01:44:26.590Z,0
2016-07-10T01:45:26.396Z,0
2016-07-10T01:46:26.494Z,0
2016-07-10T01:47:25.884Z,0
2016-07-10T01:48:26.298Z,0
2016-07-10T01:49:26.234Z,0
2016-07-10T01:50:25.891Z,0
2016-07-10T01:51:25.894Z,0
2016-07-10T01:52:25.892Z,0
2016-07-10T01:53:25.884Z,0
2016-07-10T01:54:25.892Z,0
2016-07-10T01:55:25.903Z,0
2016-07-10T01:56:25.889Z,0
2016-07-10T01:57:25.884Z,0
2016-07-10T01:58:25.889Z,0
2016-07-10T01:59:25.891Z,0
2016-07-10T02:00:25.887Z,0
2016-07-10T02:01:25.888Z,0
2016-07-10T02:02:25.885Z,0
2016-07-10T02:03:25.881Z,0
2016-07-10T02:04:25.887Z,0
2016-07-10T02:05:25.881Z,0
2016-07-10T02:06:25.879Z,0
2016-07-10T02:07:25.891Z,0
2016-07-10T02:08:25.879Z,0
2016-07-10T02:09:25.883Z,0
2016-07-10T02:10:25.887Z,0
2016-07-10T02:11:25.889Z,0
2016-07-10T02:12:25.889Z,0
2016-07-10T02:13:25.886Z,0
2016-07-10T02:14:25.881Z,0
2016-07-10T02:15:25.875Z,0
2016-07-10T02:16:25.874Z,0
2016-07-10T02:17:25.885Z,0
2016-07-10T02:18:25.880Z,0
2016-07-10T02:19:25.883Z,0
2016-07-10T02:20:29.451Z,0
2016-07-10T02:21:28.800Z,0
2016-07-10T02:22:28.117Z,0
2016-07-10T02:23:27.984Z,0
2016-07-10T02:24:25.868Z,0
2016-07-10T02:25:26.959Z,0
2016-07-10T02:26:25.871Z,0
2016-07-10T02:27:25.873Z,0
2016-07-10T02:28:25.880Z,0
2016-07-10T02:29:27.381Z,0
2016-07-10T02:31:28.147Z,0
2016-07-10T02:32:26.484Z,0
2016-07-10T02:33:26.651Z,0
2016-07-10T02:34:26.423Z,0
2016-07-10T02:35:25.885Z,0
2016-07-10T02:36:25.866Z,0
2016-07-10T02:37:25.865Z,0
2016-07-10T02:38:25.867Z,0
2016-07-10T02:39:25.878Z,0
2016-07-10T02:40:25.875Z,0
2016-07-10T02:41:25.866Z,0
2016-07-10T02:42:25.872Z,0
2016-07-10T02:43:25.879Z,0
2016-07-10T02:44:25.878Z,0
2016-07-10T02:45:25.871Z,0
2016-07-10T02:46:25.880Z,0
2016-07-10T02:47:25.879Z,0
2016-07-10T02:48:25.860Z,0
2016-07-10T02:49:25.870Z,0
2016-07-10T02:50:25.866Z,0
2016-07-10T02:51:25.866Z,0
2016-07-10T02:52:26.526Z,0
2016-07-10T02:53:25.967Z,5
2016-07-10T02:55:25.974Z,5
2016-07-10T02:56:25.862Z,5
2016-07-10T02:57:26.520Z,5
2016-07-10T02:58:25.862Z,5
2016-07-10T02:59:25.859Z,10
2016-07-10T03:00:25.870Z,10
2016-07-10T03:01:26.516Z,10
2016-07-10T03:02:41.117Z,10
2016-07-10T03:03:26.716Z,10
2016-07-10T03:04:40.976Z,15
2016-07-10T03:05:25.864Z,15
2016-07-10T03:06:25.868Z,15
2016-07-10T03:07:25.905Z,15
2016-07-10T03:08:25.873Z,15
2016-07-10T03:09:25.863Z,15
2016-07-10T03:10:25.856Z,15
2016-07-10T03:11:26.480Z,15
2016-07-10T03:12:25.856Z,15
2016-07-10T03:13:25.877Z,20
2016-07-10T03:14:25.859Z,20
2016-07-10T03:15:25.860Z,20
2016-07-10T03:16:25.865Z,20
2016-07-10T03:17:25.855Z,20
2016-07-10T03:18:26.479Z,20
2016-07-10T03:19:25.862Z,20
2016-07-10T03:20:25.850Z,20
2016-07-10T03:21:25.859Z,20
2016-07-10T03:22:25.866Z,25
2016-07-10T03:23:25.853Z,25
2016-07-10T03:24:25.856Z,25
2016-07-10T03:25:25.857Z,25
2016-07-10T03:26:25.859Z,25
2016-07-10T03:27:25.858Z,25
2016-07-10T03:28:25.851Z,30
2016-07-10T03:29:25.863Z,30
2016-07-10T03:30:25.952Z,30
2016-07-10T03:31:25.849Z,30
2016-07-10T03:32:25.861Z,30
2016-07-10T03:33:25.848Z,35
2016-07-10T03:34:25.855Z,35
2016-07-10T03:35:25.853Z,35
2016-07-10T03:36:25.849Z,40
2016-07-10T03:37:25.852Z,35
2016-07-10T03:39:29.116Z,40
2016-07-10T03:40:28.152Z,40
2016-07-10T03:41:27.064Z,45
2016-07-10T03:42:25.857Z,50
2016-07-10T03:43:25.841Z,50
2016-07-10T03:44:25.854Z,50
2016-07-10T03:45:25.990Z,55
2016-07-10T03:46:25.839Z,55
2016-07-10T03:47:27.877Z,50
2016-07-10T03:48:27.651Z,50
2016-07-10T03:49:28.819Z,55
2016-07-10T03:50:28.169Z,55
2016-07-10T03:51:26.398Z,55
2016-07-10T03:52:27.184Z,55
2016-07-10T03:53:26.905Z,60
2016-07-10T03:54:25.963Z,60
2016-07-10T03:55:25.865Z,60
2016-07-10T03:56:25.853Z,60
2016-07-10T03:57:25.835Z,60
2016-07-10T03:58:25.847Z,60
2016-07-10T03:59:25.843Z,65
2016-07-10T04:00:25.836Z,65
2016-07-10T04:01:27.066Z,70
2016-07-10T04:02:25.838Z,70
2016-07-10T04:03:25.851Z,70
2016-07-10T04:04:25.844Z,70
2016-07-10T04:05:25.854Z,75
2016-07-10T04:06:25.841Z,75
2016-07-10T04:07:25.845Z,75
2016-07-10T04:08:25.852Z,75
2016-07-10T04:09:25.846Z,75
2016-07-10T04:10:27.454Z,80
2016-07-10T04:11:26.995Z,80
2016-07-10T04:12:26.100Z,85
2016-07-10T04:13:27.150Z,85
2016-07-10T04:14:25.837Z,90
2016-07-10T04:15:25.859Z,95
2016-07-10T04:16:26.594Z,100
2016-07-10T04:17:25.843Z,105
2016-07-10T04:18:25.848Z,115
2016-07-10T04:20:40.746Z,115
2016-07-10T04:21:26.096Z,115
2016-07-10T04:22:27.052Z,115
2016-07-10T04:23:25.852Z,120
2016-07-10T04:24:25.849Z,120
2016-07-10T04:25:26.454Z,125
2016-07-10T04:26:26.052Z,125
2016-07-10T04:27:25.854Z,125
2016-07-10T04:28:25.846Z,125
2016-07-10T04:29:25.862Z,125
2016-07-10T04:30:25.850Z,125
2016-07-10T04:31:25.852Z,120
2016-07-10T04:32:25.860Z,120
2016-07-10T04:33:25.842Z,120
2016-07-10T04:34:25.844Z,120
2016-07-10T04:35:25.847Z,125
2016-07-10T04:36:25.854Z,130
2016-07-10T04:37:25.851Z,130
2016-07-10T04:38:25.844Z,130
2016-07-10T04:39:25.851Z,135
2016-07-10T04:40:25.856Z,150
2016-07-10T04:41:25.851Z,165
2016-07-10T04:42:25.862Z,185
2016-07-10T04:43:25.851Z,205
2016-07-10T04:44:25.848Z,230
2016-07-10T04:45:25.849Z,255
2016-07-10T04:46:25.861Z,290
2016-07-10T04:47:25.859Z,325
2016-07-10T04:48:25.860Z,365
2016-07-10T04:49:25.859Z,390
2016-07-10T04:50:25.855Z,410
2016-07-10T04:51:25.856Z,400
2016-07-10T04:52:25.861Z,370
2016-07-10T04:53:25.866Z,355
2016-07-10T04:54:25.861Z,340
2016-07-10T04:55:25.859Z,280
2016-07-10T04:58:28.610Z,235
2016-07-10T04:59:28.533Z,245
2016-07-10T05:00:27.307Z,260
2016-07-10T05:01:25.984Z,260
2016-07-10T05:02:26.324Z,275
2016-07-10T05:03:26.103Z,295
2016-07-10T05:04:25.884Z,300
2016-07-10T05:05:26.450Z,295
2016-07-10T05:06:28.924Z,280
2016-07-10T05:07:27.928Z,250
2016-07-10T05:08:26.467Z,230
2016-07-10T05:09:25.890Z,205
2016-07-10T05:10:27.673Z,185
2016-07-10T05:11:25.900Z,185
2016-07-10T05:12:26.093Z,180
2016-07-10T05:13:25.897Z,180
2016-07-10T05:14:25.903Z,180
2016-07-10T05:15:25.902Z,185
2016-07-10T05:16:25.903Z,190
2016-07-10T05:17:25.908Z,195
2016-07-10T05:18:25.909Z,200
2016-07-10T05:19:25.915Z,205
2016-07-10T05:20:25.913Z,205
2016-07-10T05:21:25.921Z,210
2016-07-10T05:22:25.920Z,215
2016-07-10T05:23:25.917Z,220
2016-07-10T05:24:25.926Z,225
2016-07-10T05:25:25.926Z,255
2016-07-10T05:26:25.925Z,290
2016-07-10T05:27:25.935Z,315
2016-07-10T05:28:26.793Z,380
2016-07-10T05:29:26.735Z,415
2016-07-10T05:30:27.139Z,450
2016-07-10T05:31:26.496Z,450
2016-07-10T05:32:27.858Z,435
2016-07-10T05:33:25.947Z,420
2016-07-10T05:34:25.945Z,415
2016-07-10T05:35:25.949Z,415
2016-07-10T05:36:25.955Z,420
2016-07-10T05:37:26.557Z,425
2016-07-10T05:38:26.064Z,530
2016-07-10T05:39:27.608Z,1335
2016-07-10T05:40:26.082Z,1250
2016-07-10T05:41:26.478Z,1145
2016-07-10T05:42:26.173Z,920
2016-07-10T05:43:26.332Z,1170
2016-07-10T05:44:25.995Z,1190
2016-07-10T05:45:25.988Z,1010
2016-07-10T05:46:25.997Z,950
2016-07-10T05:47:26.001Z,995
2016-07-10T05:48:26.004Z,995
2016-07-10T05:49:26.013Z,1105
2016-07-10T05:50:26.019Z,1100
2016-07-10T05:51:26.027Z,1175
2016-07-10T05:52:26.037Z,1140
2016-07-10T05:53:26.043Z,1120
2016-07-10T05:54:26.048Z,1120
2016-07-10T05:55:26.054Z,1160
2016-07-10T05:56:26.063Z,1215
2016-07-10T05:57:26.074Z,1300
2016-07-10T05:58:26.080Z,1395
2016-07-10T05:59:26.095Z,1330
2016-07-10T06:00:26.108Z,1290
2016-07-10T06:01:26.108Z,1330
2016-07-10T06:02:26.131Z,1460
2016-07-10T06:03:26.131Z,1375
2016-07-10T06:04:26.148Z,1440
2016-07-10T06:05:26.157Z,1130
2016-07-10T06:06:26.160Z,1305
2016-07-10T06:07:26.173Z,1015
2016-07-10T06:08:26.193Z,1090
2016-07-10T06:09:26.198Z,1085
2016-07-10T06:10:26.214Z,1015
2016-07-10T06:11:26.241Z,1050
2016-07-10T06:12:26.238Z,965
2016-07-10T06:13:26.252Z,1095
2016-07-10T06:14:26.256Z,1175
2016-07-10T06:15:28.383Z,1305
2016-07-10T06:16:27.916Z,1445
2016-07-10T06:17:27.136Z,1480
2016-07-10T06:18:27.064Z,1655
2016-07-10T06:19:26.745Z,1470
2016-07-10T06:20:26.949Z,1235
2016-07-10T06:21:26.381Z,1225
2016-07-10T06:22:26.453Z,1290
2016-07-10T06:23:26.379Z,1415
2016-07-10T06:25:28.736Z,1585
2016-07-10T06:26:30.384Z,1545
2016-07-10T06:27:28.390Z,1555
2016-07-10T06:28:28.399Z,1665
2016-07-10T06:29:27.500Z,1815
2016-07-10T06:30:26.574Z,1825
2016-07-10T06:31:26.668Z,1830
2016-07-10T06:32:26.543Z,1780
2016-07-10T06:33:26.513Z,1660
2016-07-10T06:34:26.534Z,1650
2016-07-10T06:35:26.555Z,1585
2016-07-10T06:36:26.557Z,1370
2016-07-10T06:37:26.587Z,1300
2016-07-10T06:38:26.599Z,1360
2016-07-10T06:39:26.614Z,1425
2016-07-10T06:40:26.626Z,1795
2016-07-10T06:41:26.648Z,2030
2016-07-10T06:42:26.659Z,1980
2016-07-10T06:43:26.686Z,1960
2016-07-10T06:44:26.697Z,1890
2016-07-10T06:45:26.718Z,1460
2016-07-10T06:46:42.853Z,1435
2016-07-10T06:47:28.108Z,2045
2016-07-10T06:48:27.472Z,1995
2016-07-10T06:50:27.095Z,1600
2016-07-10T06:51:26.822Z,2260
2016-07-10T06:52:26.834Z,1905
2016-07-10T06:53:26.847Z,2230
2016-07-10T06:54:26.875Z,2155
2016-07-10T06:55:26.893Z,1650
2016-07-10T06:56:28.817Z,1455
2016-07-10T06:57:28.038Z,1575
2016-07-10T06:58:27.562Z,1355
2016-07-10T06:59:41.883Z,1165
2016-07-10T07:00:43.192Z,1205
2016-07-10T07:01:27.241Z,1205
2016-07-10T07:02:27.638Z,1270
2016-07-10T07:03:27.196Z,985
2016-07-10T07:04:27.059Z,900
2016-07-10T07:05:27.085Z,1165
2016-07-10T07:06:27.087Z,1480
2016-07-10T07:07:27.114Z,2550
2016-07-10T07:08:27.124Z,2615
2016-07-10T07:09:27.161Z,2715
2016-07-10T07:10:27.171Z,2295
2016-07-10T07:11:32.835Z,955
2016-07-10T07:12:27.203Z,1710
2016-07-10T07:14:28.664Z,2455
2016-07-10T07:16:33.017Z,1970
2016-07-10T07:17:27.308Z,1840
2016-07-10T07:18:27.313Z,2115
2016-07-10T07:19:27.343Z,2295
2016-07-10T07:20:27.358Z,2395
2016-07-10T07:21:27.381Z,2370
2016-07-10T07:22:27.387Z,2315
2016-07-10T07:23:27.412Z,2260
2016-07-10T07:24:27.430Z,2370
2016-07-10T07:25:27.459Z,2040
2016-07-10T07:26:27.478Z,2400
2016-07-10T07:27:27.493Z,2475
2016-07-10T07:28:27.510Z,2515
2016-07-10T07:29:27.521Z,2540
2016-07-10T07:30:27.712Z,2560
2016-07-10T07:31:27.573Z,2580
2016-07-10T07:32:27.609Z,2665
2016-07-10T07:33:29.807Z,2675
2016-07-10T07:34:30.121Z,2850
2016-07-10T07:35:28.925Z,2135
2016-07-10T07:36:30.791Z,1920
2016-07-10T07:37:28.280Z,2080
2016-07-10T07:38:28.273Z,1815
2016-07-10T07:39:27.734Z,2010
2016-07-10T07:40:27.873Z,2510
2016-07-10T07:41:27.791Z,2520
2016-07-10T07:43:29.697Z,2505
2016-07-10T07:44:30.594Z,2510
2016-07-10T07:45:29.739Z,2615
2016-07-10T07:46:27.901Z,1775
2016-07-10T07:47:28.265Z,2000
2016-07-10T07:48:27.937Z,2420
2016-07-10T07:49:27.953Z,2140
2016-07-10T07:50:27.982Z,2670
2016-07-10T07:51:28.005Z,2710
2016-07-10T07:52:28.012Z,2620
2016-07-10T07:53:28.056Z,2395
2016-07-10T07:54:28.071Z,2740
2016-07-10T07:55:28.083Z,2370
2016-07-10T07:56:28.105Z,2290
2016-07-10T07:57:28.129Z,1625
2016-07-10T07:58:28.154Z,2170
2016-07-10T07:59:28.188Z,2270
2016-07-10T08:00:28.197Z,2275
2016-07-10T08:01:28.223Z,2310
2016-07-10T08:02:28.241Z,2325
2016-07-10T08:03:28.265Z,2285
2016-07-10T08:04:28.291Z,2310
2016-07-10T08:05:29.303Z,2430
2016-07-10T08:06:29.042Z,2550
2016-07-10T08:07:29.006Z,2625
2016-07-10T08:08:29.273Z,2140
2016-07-10T08:09:29.155Z,870
2016-07-10T08:10:28.462Z,670
2016-07-10T08:11:29.008Z,1565
2016-07-10T08:12:28.461Z,2670
2016-07-10T08:13:28.487Z,2615
2016-07-10T08:14:29.615Z,2625
2016-07-10T08:15:29.875Z,2980
2016-07-10T08:17:29.132Z,3455
2016-07-10T08:18:29.554Z,3565
2016-07-10T08:19:29.262Z,3645
2016-07-10T08:20:28.633Z,3525
2016-07-10T08:21:28.655Z,3505
2016-07-10T08:22:28.688Z,1295
2016-07-10T08:23:28.714Z,1185
2016-07-10T08:24:28.729Z,3685
2016-07-10T08:25:28.751Z,3525
2016-07-10T08:26:29.396Z,1815
2016-07-10T08:27:29.403Z,2310
2016-07-10T08:28:28.816Z,2405
2016-07-10T08:29:28.847Z,2460
2016-07-10T08:30:28.908Z,2420
2016-07-10T08:31:28.890Z,2410
2016-07-10T08:32:28.910Z,2355
2016-07-10T08:33:28.936Z,2360
2016-07-10T08:34:28.957Z,2290
2016-07-10T08:35:28.977Z,2270
2016-07-10T08:36:29.009Z,2280
2016-07-10T08:37:29.023Z,2315
2016-07-10T08:38:29.053Z,2280
2016-07-10T08:39:29.070Z,2370
2016-07-10T08:40:29.081Z,2295
2016-07-10T08:41:29.116Z,2260
2016-07-10T08:42:29.141Z,2215
2016-07-10T08:43:29.155Z,2095
2016-07-10T08:44:29.178Z,2035
2016-07-10T08:45:29.202Z,2080
2016-07-10T08:46:29.224Z,2055
2016-07-10T08:47:29.238Z,1955
2016-07-10T08:48:29.262Z,2110
2016-07-10T08:49:29.280Z,2000
2016-07-10T08:50:29.303Z,2215
2016-07-10T08:51:34.333Z,2135
2016-07-10T08:52:31.663Z,1625
2016-07-10T08:53:32.811Z,1800
2016-07-10T08:54:32.146Z,1020
2016-07-10T08:55:30.430Z,900
2016-07-10T08:56:29.429Z,635
2016-07-10T08:57:29.447Z,660
2016-07-10T08:58:29.485Z,1055
2016-07-10T08:59:29.498Z,875
2016-07-10T09:00:32.191Z,580
2016-07-10T09:01:32.830Z,500
2016-07-10T09:02:30.927Z,455
2016-07-10T09:03:31.031Z,425
2016-07-10T09:04:29.939Z,415
2016-07-10T09:05:31.292Z,405
2016-07-10T09:06:29.614Z,400
2016-07-10T09:07:29.629Z,405
2016-07-10T09:08:29.628Z,440
2016-07-10T09:09:29.651Z,490
2016-07-10T09:10:29.666Z,495
2016-07-10T09:11:29.678Z,500
2016-07-10T09:12:29.698Z,520
2016-07-10T09:13:29.703Z,495
2016-07-10T09:14:29.718Z,485
2016-07-10T09:15:29.745Z,470
2016-07-10T09:16:29.755Z,500
2016-07-10T09:17:29.762Z,530
2016-07-10T09:18:29.772Z,535
2016-07-10T09:19:29.789Z,565
2016-07-10T09:20:29.792Z,610
2016-07-10T09:21:29.813Z,610
2016-07-10T09:22:29.822Z,640
2016-07-10T09:23:31.018Z,660
2016-07-10T09:24:31.491Z,635
2016-07-10T09:25:30.603Z,615
2016-07-10T09:26:30.006Z,600
2016-07-10T09:27:30.185Z,575
2016-07-10T09:28:29.877Z,590
2016-07-10T09:29:29.912Z,620
2016-07-10T09:30:30.067Z,640
2016-07-10T09:31:29.919Z,640
2016-07-10T09:32:30.179Z,630
2016-07-10T09:33:45.596Z,600
2016-07-10T09:34:46.106Z,595
2016-07-10T09:35:31.010Z,590
2016-07-10T09:36:30.622Z,585
2016-07-10T09:37:30.726Z,585
2016-07-10T09:38:30.444Z,570
2016-07-10T09:39:30.002Z,550
2016-07-10T09:40:30.059Z,545
2016-07-10T09:41:30.030Z,575
2016-07-10T09:42:30.028Z,595
2016-07-10T09:43:30.047Z,645
2016-07-10T09:44:30.055Z,690
2016-07-10T09:45:30.069Z,735
2016-07-10T09:46:30.070Z,755
2016-07-10T09:47:30.079Z,780
2016-07-10T09:48:30.094Z,805
2016-07-10T09:49:30.104Z,830
2016-07-10T09:50:30.111Z,855
2016-07-10T09:51:30.129Z,900
2016-07-10T09:52:30.149Z,905
2016-07-10T09:53:30.153Z,900
2016-07-10T09:54:30.158Z,870
2016-07-10T09:55:30.161Z,825
2016-07-10T09:56:30.176Z,790
2016-07-10T09:57:30.192Z,770
2016-07-10T09:58:30.201Z,750
2016-07-10T09:59:30.202Z,730
2016-07-10T10:00:30.223Z,720
2016-07-10T10:01:30.233Z,705
2016-07-10T10:02:30.248Z,690
2016-07-10T10:03:30.247Z,665
2016-07-10T10:04:30.279Z,645
2016-07-10T10:05:30.278Z,635
2016-07-10T10:06:30.280Z,625
2016-07-10T10:07:30.288Z,615
2016-07-10T10:08:30.310Z,610
2016-07-10T10:09:33.292Z,610
2016-07-10T10:10:32.360Z,620
2016-07-10T10:11:32.870Z,640
2016-07-10T10:12:33.219Z,665
2016-07-10T10:13:30.361Z,690
2016-07-10T10:14:31.395Z,715
2016-07-10T10:15:30.994Z,745
2016-07-10T10:16:30.397Z,760
2016-07-10T10:17:31.009Z,765
2016-07-10T10:18:30.426Z,765
2016-07-10T10:19:33.772Z,755
2016-07-10T10:20:32.981Z,760
2016-07-10T10:21:32.112Z,765
2016-07-10T10:22:31.801Z,765
2016-07-10T10:23:31.420Z,770
2016-07-10T10:24:30.476Z,775
2016-07-10T10:25:30.718Z,780
2016-07-10T10:26:30.587Z,775
2016-07-10T10:27:30.508Z,765
2016-07-10T10:28:30.537Z,760
2016-07-10T10:29:30.540Z,750
2016-07-10T10:30:30.607Z,740
2016-07-10T10:31:30.548Z,725
2016-07-10T10:32:30.559Z,710
2016-07-10T10:33:30.568Z,700
2016-07-10T10:34:30.587Z,700
2016-07-10T10:35:30.590Z,705
2016-07-10T10:36:30.608Z,690
2016-07-10T10:37:30.622Z,660
2016-07-10T10:38:30.637Z,630
2016-07-10T10:39:30.639Z,610
2016-07-10T10:40:30.669Z,610
2016-07-10T10:41:31.614Z,600
2016-07-10T10:42:31.858Z,565
2016-07-10T10:43:31.436Z,505
2016-07-10T10:44:30.740Z,450
2016-07-10T10:45:30.848Z,425
2016-07-10T10:46:32.067Z,415
2016-07-10T10:47:31.332Z,395
2016-07-10T10:48:30.723Z,365
2016-07-10T10:49:30.739Z,350
2016-07-10T10:50:46.709Z,340
2016-07-10T10:51:31.502Z,330
2016-07-10T10:52:45.872Z,335
2016-07-10T10:53:30.888Z,330
2016-07-10T10:54:31.184Z,320
2016-07-10T10:55:30.805Z,320
2016-07-10T10:56:30.816Z,320
2016-07-10T10:57:30.827Z,340
2016-07-10T10:58:30.835Z,365
2016-07-10T10:59:30.852Z,385
2016-07-10T11:00:31.456Z,410
2016-07-10T11:01:30.856Z,430
2016-07-10T11:02:30.879Z,455
2016-07-10T11:03:30.873Z,480
2016-07-10T11:04:30.895Z,490
2016-07-10T11:05:30.896Z,500
2016-07-10T11:06:30.903Z,530
2016-07-10T11:07:30.916Z,555
2016-07-10T11:08:30.930Z,560
2016-07-10T11:09:30.931Z,570
2016-07-10T11:10:30.945Z,575
2016-07-10T11:11:30.943Z,595
2016-07-10T11:12:30.964Z,610
2016-07-10T11:13:30.961Z,600
2016-07-10T11:14:30.982Z,585
2016-07-10T11:15:30.995Z,580
2016-07-10T11:16:30.999Z,575
2016-07-10T11:17:31.010Z,565
2016-07-10T11:18:31.019Z,560
2016-07-10T11:19:31.028Z,565
2016-07-10T11:20:31.640Z,545
2016-07-10T11:21:31.050Z,500
2016-07-10T11:22:31.052Z,480
2016-07-10T11:23:31.666Z,460
2016-07-10T11:24:31.069Z,455
2016-07-10T11:25:31.090Z,465
2016-07-10T11:26:31.080Z,485
2016-07-10T11:27:31.103Z,485
2016-07-10T11:28:33.409Z,485
2016-07-10T11:29:33.074Z,490
2016-07-10T11:30:34.519Z,500
2016-07-10T11:31:32.493Z,520
2016-07-10T11:32:32.214Z,535
2016-07-10T11:33:31.152Z,545
2016-07-10T11:34:31.997Z,560
2016-07-10T11:35:31.180Z,555
2016-07-10T11:36:31.340Z,555
2016-07-10T11:37:34.366Z,555
2016-07-10T11:38:33.121Z,570
2016-07-10T11:39:33.203Z,560
2016-07-10T11:40:31.739Z,535
2016-07-10T11:41:32.042Z,480
2016-07-10T11:42:31.466Z,435
2016-07-10T11:43:31.242Z,415
2016-07-10T11:44:31.259Z,400
2016-07-10T11:45:31.320Z,390
2016-07-10T11:46:31.282Z,370
2016-07-10T11:47:31.276Z,355
2016-07-10T11:48:31.302Z,345
2016-07-10T11:49:31.302Z,335
2016-07-10T11:50:31.317Z,325
2016-07-10T11:51:31.320Z,305
2016-07-10T11:52:31.332Z,290
2016-07-10T11:53:31.339Z,290
2016-07-10T11:54:31.364Z,285
2016-07-10T11:55:31.351Z,280
2016-07-10T11:56:31.362Z,270
2016-07-10T11:57:31.377Z,265
2016-07-10T11:58:31.405Z,265
2016-07-10T11:59:46.311Z,265
2016-07-10T12:00:32.257Z,265
2016-07-10T12:01:31.705Z,260
2016-07-10T12:02:32.565Z,260
2016-07-10T12:03:31.780Z,260
2016-07-10T12:04:31.440Z,260
2016-07-10T12:05:31.501Z,260
2016-07-10T12:06:31.452Z,260
2016-07-10T12:07:31.454Z,265
2016-07-10T12:08:31.472Z,265
2016-07-10T12:10:32.578Z,260
2016-07-10T12:11:47.158Z,260
2016-07-10T12:12:32.066Z,255
2016-07-10T12:13:31.918Z,250
2016-07-10T12:14:32.132Z,250
2016-07-10T12:15:31.737Z,250
2016-07-10T12:16:31.692Z,250
2016-07-10T12:17:31.539Z,250
2016-07-10T12:18:31.562Z,250
2016-07-10T12:19:31.559Z,245
2016-07-10T12:20:31.566Z,245
2016-07-10T12:21:31.592Z,245
2016-07-10T12:22:31.590Z,245
2016-07-10T12:23:31.599Z,250
2016-07-10T12:24:31.600Z,245
2016-07-10T12:25:31.612Z,250
2016-07-10T12:26:31.622Z,245
2016-07-10T12:27:31.637Z,245
2016-07-10T12:28:31.638Z,245
2016-07-10T12:29:31.648Z,245
2016-07-10T12:30:31.654Z,250
2016-07-10T12:31:31.654Z,255
2016-07-10T12:32:31.669Z,255
2016-07-10T12:33:31.679Z,255
2016-07-10T12:34:32.289Z,255
2016-07-10T12:35:31.697Z,255
2016-07-10T12:36:31.703Z,250
2016-07-10T12:37:31.708Z,250
2016-07-10T12:38:31.716Z,250
2016-07-10T12:39:31.719Z,245
2016-07-10T12:40:31.725Z,240
2016-07-10T12:41:31.739Z,245
2016-07-10T12:42:31.747Z,245
2016-07-10T12:43:31.752Z,260
2016-07-10T12:44:31.765Z,270
2016-07-10T12:45:31.775Z,275
2016-07-10T12:46:33.702Z,260
2016-07-10T12:47:34.890Z,245
2016-07-10T12:48:35.439Z,250
2016-07-10T12:49:34.233Z,255
2016-07-10T12:50:32.128Z,240
2016-07-10T12:51:32.442Z,240
2016-07-10T12:52:31.829Z,245
2016-07-10T12:53:31.830Z,250
2016-07-10T12:54:31.846Z,250
2016-07-10T12:57:34.223Z,290
2016-07-10T12:58:33.625Z,295
2016-07-10T12:59:31.886Z,315
2016-07-10T13:00:32.668Z,325
2016-07-10T13:01:32.318Z,320
2016-07-10T13:02:31.907Z,310
2016-07-10T13:03:31.990Z,295
2016-07-10T13:04:31.928Z,295
2016-07-10T13:05:31.920Z,330
2016-07-10T13:06:31.943Z,350
2016-07-10T13:07:31.948Z,325
2016-07-10T13:08:31.966Z,315
2016-07-10T13:09:31.963Z,310
2016-07-10T13:10:31.965Z,325
2016-07-10T13:11:31.983Z,320
2016-07-10T13:12:31.988Z,315
2016-07-10T13:13:31.992Z,355
2016-07-10T13:14:32.007Z,355
2016-07-10T13:15:32.010Z,345
2016-07-10T13:16:32.019Z,345
2016-07-10T13:17:32.033Z,325
2016-07-10T13:18:33.336Z,325
2016-07-10T13:19:33.401Z,305
2016-07-10T13:20:47.220Z,310
2016-07-10T13:21:33.165Z,315
2016-07-10T13:22:32.078Z,310
2016-07-10T13:23:32.088Z,310
2016-07-10T13:24:32.087Z,310
2016-07-10T13:25:32.100Z,305
2016-07-10T13:26:32.113Z,305
2016-07-10T13:27:33.808Z,310
2016-07-10T13:28:47.329Z,340
2016-07-10T13:29:32.688Z,330
2016-07-10T13:30:47.344Z,330
2016-07-10T13:31:32.291Z,330
2016-07-10T13:32:32.811Z,340
2016-07-10T13:33:32.319Z,355
2016-07-10T13:34:32.183Z,375
2016-07-10T13:35:32.182Z,385
2016-07-10T13:36:32.184Z,390
2016-07-10T13:37:32.217Z,410
2016-07-10T13:38:32.203Z,440
2016-07-10T13:39:32.215Z,460
2016-07-10T13:40:32.841Z,475
2016-07-10T13:41:32.241Z,475
2016-07-10T13:42:32.248Z,465
2016-07-10T13:43:32.251Z,440
2016-07-10T13:44:32.270Z,430
2016-07-10T13:45:32.274Z,430
2016-07-10T13:46:32.275Z,420
2016-07-10T13:47:32.894Z,430
2016-07-10T13:48:32.295Z,440
2016-07-10T13:49:32.309Z,430
2016-07-10T13:50:32.310Z,440
2016-07-10T13:51:32.321Z,450
2016-07-10T13:52:32.340Z,445
2016-07-10T13:53:32.345Z,435
2016-07-10T13:54:32.341Z,420
2016-07-10T13:55:32.360Z,390
2016-07-10T13:56:32.374Z,365
2016-07-10T13:57:32.372Z,360
2016-07-10T13:58:32.394Z,370
2016-07-10T13:59:32.401Z,390
2016-07-10T14:00:32.404Z,410
2016-07-10T14:01:32.424Z,405
2016-07-10T14:02:32.417Z,395
2016-07-10T14:03:32.430Z,375
2016-07-10T14:04:34.000Z,345
2016-07-10T14:05:34.566Z,335
2016-07-10T14:06:36.256Z,325
2016-07-10T14:07:36.033Z,325
2016-07-10T14:08:32.554Z,325
2016-07-10T14:09:33.110Z,350
2016-07-10T14:10:33.289Z,355
2016-07-10T14:11:32.844Z,360
2016-07-10T14:12:32.522Z,355
2016-07-10T14:13:35.215Z,345